createdAt,value
2023-03-02T00:02:41.750Z,16.48
2023-03-02T00:06:44.887Z,16.38
2023-03-02T00:10:49.066Z,15.77
2023-03-02T00:14:51.861Z,16.40
2023-03-02T00:18:54.671Z,16.52
2023-03-02T00:22:57.468Z,16.40
2023-03-02T00:27:01.631Z,16.05
2023-03-02T00:31:06.200Z,16.65
2023-03-02T00:35:10.054Z,17.63
2023-03-02T00:39:12.841Z,16.65
2023-03-02T00:43:17.051Z,16.98
2023-03-02T00:47:20.155Z,16.73
2023-03-02T00:51:23.031Z,16.98
2023-03-02T00:55:25.848Z,17.88
2023-03-02T00:59:30.397Z,17.48
2023-03-02T01:03:40.553Z,18.10
2023-03-02T01:07:44.331Z,17.48
2023-03-02T01:11:47.104Z,18.73
2023-03-02T01:16:00.325Z,17.85
2023-03-02T01:20:04.756Z,17.83
2023-03-02T01:24:08.219Z,17.52
2023-03-02T01:28:10.973Z,17.45
2023-03-02T01:32:15.155Z,18.05
2023-03-02T01:36:18.716Z,19.65
2023-03-02T01:40:21.615Z,18.30
2023-03-02T01:44:39.651Z,18.25
2023-03-02T01:48:47.942Z,19.25
2023-03-02T01:52:56.366Z,18.67
2023-03-02T01:57:03.345Z,19.75
2023-03-02T02:01:15.468Z,18.92
2023-03-02T02:05:24.051Z,19.58
2023-03-02T02:09:29.081Z,19.65
2023-03-02T02:13:32.121Z,18.60
2023-03-02T02:17:35.257Z,18.13
2023-03-02T02:21:39.482Z,19.75
2023-03-02T02:25:49.132Z,19.20
2023-03-02T02:29:54.489Z,18.50
2023-03-02T02:34:02.260Z,20.03
2023-03-02T02:38:08.724Z,18.33
2023-03-02T02:42:15.560Z,19.02
2023-03-02T02:46:21.180Z,19.33
2023-03-02T02:50:29.274Z,17.00
2023-03-02T02:54:33.542Z,18.90
2023-03-02T02:58:40.763Z,19.38
2023-03-02T03:02:47.176Z,19.05
2023-03-02T03:06:53.037Z,19.05
2023-03-02T03:10:56.177Z,19.33
2023-03-02T03:14:59.969Z,19.25
2023-03-02T03:19:09.092Z,20.30
2023-03-02T03:23:11.940Z,20.30
2023-03-02T03:27:17.281Z,18.55
2023-03-02T03:35:25.365Z,17.05
2023-03-02T03:39:29.544Z,17.85
2023-03-02T03:43:32.725Z,18.65
2023-03-02T03:47:35.798Z,18.33
2023-03-02T03:51:41.967Z,18.45
2023-03-02T03:55:45.462Z,19.70
2023-03-02T03:59:49.752Z,18.42
2023-03-02T04:03:53.788Z,19.30
2023-03-02T04:08:02.147Z,20.20
2023-03-02T04:12:07.962Z,18.73
2023-03-02T04:16:11.754Z,18.42
2023-03-02T04:20:16.898Z,18.33
2023-03-02T04:24:24.554Z,18.33
2023-03-02T04:28:30.595Z,19.48
2023-03-02T04:32:33.749Z,19.63
2023-03-02T04:36:38.904Z,19.48
2023-03-02T04:40:46.150Z,20.08
2023-03-02T04:44:49.180Z,19.02
2023-03-02T04:48:52.038Z,19.10
2023-03-02T04:52:54.843Z,21.65
2023-03-02T04:56:58.962Z,21.52
2023-03-02T05:01:02.350Z,20.60
2023-03-02T05:05:05.653Z,21.50
2023-03-02T05:09:08.963Z,19.20
2023-03-02T05:13:13.129Z,18.83
2023-03-02T05:17:15.947Z,19.88
2023-03-02T05:21:19.852Z,19.10
2023-03-02T05:25:23.032Z,19.45
2023-03-02T05:29:27.207Z,19.60
2023-03-02T05:33:30.751Z,19.75
2023-03-02T05:37:33.644Z,20.45
2023-03-02T05:41:37.818Z,21.30
2023-03-02T05:45:41.952Z,22.40
2023-03-02T05:49:44.772Z,19.15
2023-03-02T05:53:48.534Z,20.85
2023-03-02T05:57:51.379Z,20.55
2023-03-02T06:01:59.413Z,19.73
2023-03-02T06:06:02.184Z,20.48
2023-03-02T06:10:05.390Z,19.92
2023-03-02T06:14:08.114Z,19.63
2023-03-02T06:18:12.555Z,19.92
2023-03-02T06:22:15.359Z,21.50
2023-03-02T06:26:18.124Z,20.23
2023-03-02T06:30:23.297Z,20.92
2023-03-02T06:34:29.327Z,20.38
2023-03-02T06:38:32.049Z,20.13
2023-03-02T06:42:34.821Z,21.05
2023-03-02T06:46:37.829Z,20.73
2023-03-02T06:50:41.966Z,22.55
2023-03-02T06:54:44.743Z,22.42
2023-03-02T06:58:47.589Z,21.40
2023-03-02T07:02:50.374Z,21.08
2023-03-02T07:06:54.543Z,22.42
2023-03-02T07:10:57.315Z,22.80
2023-03-02T07:15:00.139Z,21.58
2023-03-02T07:19:03.011Z,20.05
2023-03-02T07:23:07.513Z,18.55
2023-03-02T07:27:10.267Z,20.63
2023-03-02T07:31:13.309Z,19.10
2023-03-02T07:35:17.061Z,20.80
2023-03-02T07:39:21.798Z,20.55
2023-03-02T07:43:26.008Z,20.65
2023-03-02T07:47:28.773Z,21.45
2023-03-02T07:51:31.978Z,21.25
2023-03-02T07:55:36.297Z,19.35
2023-03-02T07:59:39.193Z,22.27
2023-03-02T08:03:42.056Z,20.88
2023-03-02T08:07:46.908Z,22.85
2023-03-02T08:11:51.040Z,21.63
2023-03-02T08:16:00.805Z,20.83
2023-03-02T08:20:03.968Z,21.42
2023-03-02T08:24:07.202Z,21.70
2023-03-02T08:28:11.364Z,20.95
2023-03-02T08:32:14.345Z,21.30
2023-03-02T08:36:19.057Z,21.08
2023-03-02T08:40:21.876Z,20.30
2023-03-02T08:44:26.283Z,21.73
2023-03-02T08:48:30.101Z,21.08
2023-03-02T08:52:34.338Z,21.27
2023-03-02T08:56:39.233Z,20.17
2023-03-02T09:00:44.067Z,20.60
2023-03-02T09:04:46.944Z,19.70
2023-03-02T09:08:50.360Z,21.30
2023-03-02T09:12:53.140Z,20.75
2023-03-02T09:16:57.382Z,20.27
2023-03-02T09:21:00.284Z,19.85
2023-03-02T09:25:03.158Z,18.45
2023-03-02T09:29:07.069Z,17.58
2023-03-02T09:33:11.253Z,18.53
2023-03-02T09:37:14.067Z,17.38
2023-03-02T09:41:58.300Z,16.20
2023-03-02T09:46:16.280Z,15.95
2023-03-02T09:50:30.322Z,15.65
2023-03-02T09:58:39.413Z,15.57
2023-03-02T10:02:48.964Z,14.50
2023-03-02T10:06:58.801Z,15.20
2023-03-02T10:11:08.950Z,14.63
2023-03-02T10:15:15.746Z,13.98
2023-03-02T10:19:25.057Z,13.23
2023-03-02T10:23:39.857Z,13.00
2023-03-02T10:27:45.220Z,12.93
2023-03-02T10:31:52.823Z,13.27
2023-03-02T10:35:55.845Z,12.60
2023-03-02T10:40:00.252Z,12.57
2023-03-02T10:44:06.855Z,13.00
2023-03-02T10:48:13.518Z,12.30
2023-03-02T10:52:18.148Z,12.52
2023-03-02T10:56:22.878Z,12.95
2023-03-02T11:00:28.586Z,13.20
2023-03-02T11:04:31.512Z,13.35
2023-03-02T11:08:34.419Z,12.50
2023-03-02T11:12:38.726Z,12.32
2023-03-02T11:16:41.572Z,13.88
2023-03-02T11:20:48.474Z,12.25
2023-03-02T11:24:56.136Z,13.55
2023-03-02T11:29:05.213Z,12.65
2023-03-02T11:33:13.157Z,12.80
2023-03-02T11:37:19.590Z,12.70
2023-03-02T11:41:29.840Z,11.95
2023-03-02T11:45:37.886Z,12.80
2023-03-02T11:49:43.562Z,13.02
2023-03-02T11:53:51.363Z,13.07
2023-03-02T11:57:56.228Z,12.90
2023-03-02T12:02:01.834Z,12.95
2023-03-02T12:06:07.979Z,12.45
2023-03-02T12:10:28.495Z,12.93
2023-03-02T12:14:38.912Z,13.05
2023-03-02T12:18:48.834Z,12.90
2023-03-02T12:22:52.363Z,12.73
2023-03-02T12:27:03.377Z,13.43
2023-03-02T12:31:11.433Z,13.10
2023-03-02T12:35:20.486Z,12.27
2023-03-02T12:39:35.119Z,12.40
2023-03-02T12:43:38.850Z,11.85
2023-03-02T12:47:45.679Z,11.48
2023-03-02T12:51:53.987Z,12.40
2023-03-02T12:55:57.490Z,12.48
2023-03-02T13:00:02.473Z,12.77
2023-03-02T13:04:05.350Z,12.40
2023-03-02T13:08:17.156Z,18.00
2023-03-02T13:12:20.111Z,20.13
2023-03-02T13:16:25.435Z,20.00
2023-03-02T13:20:30.267Z,18.83
2023-03-02T13:24:44.767Z,20.33
2023-03-02T13:28:47.627Z,19.67
2023-03-02T13:32:51.262Z,20.00
2023-03-02T13:36:54.510Z,21.13
2023-03-02T13:40:58.766Z,21.33
2023-03-02T13:45:20.542Z,20.98
2023-03-02T13:49:31.283Z,21.23
2023-03-02T13:53:38.021Z,20.80
2023-03-02T13:57:42.587Z,20.02
2023-03-02T14:01:45.741Z,20.35
2023-03-02T14:05:48.561Z,23.13
2023-03-02T14:09:51.294Z,21.60
2023-03-02T14:13:56.193Z,21.50
2023-03-02T14:17:59.112Z,20.02
2023-03-02T14:22:01.903Z,20.67
2023-03-02T14:26:20.332Z,22.63
2023-03-02T14:30:24.516Z,20.65
2023-03-02T14:34:27.952Z,21.33
2023-03-02T14:38:31.134Z,21.40
2023-03-02T14:42:34.018Z,18.92
2023-03-02T14:46:38.315Z,21.40
2023-03-02T14:50:44.625Z,21.25
2023-03-02T14:54:51.999Z,21.95
2023-03-02T14:58:55.104Z,21.35
2023-03-02T15:02:59.509Z,21.10
2023-03-02T15:07:02.394Z,22.88
2023-03-02T15:11:05.230Z,22.98
2023-03-02T15:15:09.184Z,23.45
2023-03-02T15:19:13.346Z,23.67
2023-03-02T15:23:16.085Z,23.02
2023-03-02T15:27:18.830Z,22.83
2023-03-02T15:31:21.899Z,23.95
2023-03-02T15:35:26.527Z,21.65
2023-03-02T15:39:29.216Z,23.90
2023-03-02T15:43:32.025Z,23.65
2023-03-02T15:47:34.828Z,22.10
2023-03-02T15:51:38.963Z,23.85
2023-03-02T15:55:42.504Z,27.67
2023-03-02T15:59:46.238Z,25.60
2023-03-02T16:03:49.063Z,25.02
2023-03-02T16:07:53.278Z,26.27
2023-03-02T16:11:56.160Z,26.50
2023-03-02T16:16:01.543Z,23.20
2023-03-02T16:20:04.615Z,25.75
2023-03-02T16:24:09.726Z,25.20
2023-03-02T16:28:12.922Z,25.35
2023-03-02T16:32:15.897Z,24.45
2023-03-02T16:36:18.823Z,25.83
2023-03-02T16:40:23.615Z,25.95
2023-03-02T16:44:26.879Z,25.02
2023-03-02T16:48:29.723Z,25.90
2023-03-02T16:52:32.856Z,25.95
2023-03-02T16:56:37.095Z,24.75
2023-03-02T17:00:39.989Z,27.65
2023-03-02T17:04:43.084Z,25.90
2023-03-02T17:08:45.954Z,25.80
2023-03-02T17:12:50.528Z,26.45
2023-03-02T17:16:53.637Z,25.77
2023-03-02T17:20:58.510Z,25.13
2023-03-02T17:25:03.543Z,24.33
2023-03-02T17:29:08.782Z,25.63
2023-03-02T17:33:12.089Z,25.15
2023-03-02T17:37:17.280Z,25.20
2023-03-02T17:41:21.389Z,25.73
2023-03-02T17:45:27.557Z,27.70
2023-03-02T17:49:30.634Z,26.08
2023-03-02T17:53:33.504Z,25.88
2023-03-02T17:57:37.103Z,27.00
2023-03-02T18:01:43.420Z,27.88
2023-03-02T18:09:48.900Z,26.77
2023-03-02T18:13:54.709Z,26.70
2023-03-02T18:17:58.939Z,26.58
2023-03-02T18:22:01.792Z,26.42
2023-03-02T18:26:04.833Z,25.17
2023-03-02T18:30:08.966Z,27.35
2023-03-02T18:34:13.288Z,27.60
2023-03-02T18:38:16.093Z,26.42
2023-03-02T18:42:19.224Z,25.55
2023-03-02T18:46:24.150Z,27.45
2023-03-02T18:50:30.151Z,25.23
2023-03-02T18:54:32.986Z,26.33
2023-03-02T18:58:36.023Z,26.30
2023-03-02T19:02:38.820Z,26.05
2023-03-02T19:06:43.572Z,25.45
2023-03-02T19:10:46.364Z,24.05
2023-03-02T19:14:49.125Z,24.50
2023-03-02T19:18:52.372Z,23.90
2023-03-02T19:22:56.692Z,23.52
2023-03-02T19:26:59.951Z,23.85
2023-03-02T19:31:06.718Z,25.00
2023-03-02T19:35:13.607Z,24.17
2023-03-02T19:39:18.038Z,24.80
2023-03-02T19:43:21.355Z,24.55
2023-03-02T19:47:24.587Z,25.05
2023-03-02T19:51:27.653Z,23.67
2023-03-02T19:55:31.859Z,24.55
2023-03-02T19:59:36.595Z,24.75
2023-03-02T20:03:39.534Z,26.10
2023-03-02T20:07:43.603Z,25.95
2023-03-02T20:11:48.277Z,24.33
2023-03-02T20:15:51.886Z,24.90
2023-03-02T20:19:55.936Z,24.23
2023-03-02T20:23:59.379Z,24.60
2023-03-02T20:28:05.935Z,24.10
2023-03-02T20:32:11.236Z,25.55
2023-03-02T20:36:14.901Z,25.30
2023-03-02T20:40:19.573Z,25.67
2023-03-02T20:44:25.456Z,23.88
2023-03-02T20:48:28.601Z,23.75
2023-03-02T20:52:31.588Z,24.48
2023-03-02T20:56:34.647Z,23.65
2023-03-02T21:00:39.994Z,24.48
2023-03-02T21:04:43.669Z,26.10
2023-03-02T21:08:47.405Z,23.13
2023-03-02T21:12:50.624Z,25.40
2023-03-02T21:16:55.775Z,25.92
2023-03-02T21:20:58.704Z,24.23
2023-03-02T21:25:02.433Z,27.13
2023-03-02T21:29:06.220Z,25.58
2023-03-02T21:33:10.476Z,24.70
2023-03-02T21:37:13.320Z,25.85
2023-03-02T21:41:16.125Z,26.58
2023-03-02T21:45:19.167Z,24.73
2023-03-02T21:49:24.390Z,25.80
2023-03-02T21:53:27.314Z,26.25
2023-03-02T21:57:30.448Z,25.52
2023-03-02T22:01:33.859Z,26.17
2023-03-02T22:05:39.098Z,27.27
2023-03-02T22:09:41.896Z,26.35
2023-03-02T22:13:44.723Z,25.42
2023-03-02T22:17:47.814Z,24.52
2023-03-02T22:21:52.793Z,27.60
2023-03-02T22:26:11.695Z,26.00
2023-03-02T22:30:21.637Z,26.90
2023-03-02T22:34:26.448Z,25.60
2023-03-02T22:38:31.858Z,26.63
2023-03-02T22:42:34.924Z,20.50
2023-03-02T22:46:37.765Z,27.13
2023-03-02T22:50:40.668Z,26.80
2023-03-02T22:54:46.042Z,25.77
2023-03-02T22:58:50.141Z,27.60
2023-03-02T23:02:55.525Z,26.77
2023-03-02T23:07:00.567Z,28.10
2023-03-02T23:11:13.306Z,28.10
2023-03-02T23:15:20.430Z,26.05
2023-03-02T23:19:23.450Z,25.98
2023-03-02T23:23:28.664Z,28.50
2023-03-02T23:27:32.824Z,28.23
2023-03-02T23:31:35.678Z,29.35
2023-03-02T23:35:38.568Z,27.80
2023-03-02T23:39:41.366Z,26.70
2023-03-02T23:43:45.722Z,27.55
2023-03-02T23:47:48.708Z,26.38
2023-03-02T23:51:51.515Z,26.42
2023-03-02T23:55:56.162Z,26.83
